Wednesday, November 14, 2018, 8:59 PM EST
Back to Local

KBGR, Bangor Int'l Airport

Location: Bangor, ME, United States Lat: 44.8
Local Time: 8:59 PM EST ( 1:59 GMT) Lon: -68.817
Time Zone: US/Eastern Elev: 193 ft

Show me the last for .
Show Coded

Time T Td Feel RH Dir Speed Gust Alt SLP Vis Weather Sky Remarks
2018-11-14 19:53 18 4 2 53 300° 12 20 30.38 30.40 10 CLR None
2018-11-14 18:53 18 4 1 53 310° 10 22 30.36 30.37 10 CLR 6-hr Min Temp (7pm): 18.0°F
6-hr Max Temp (7pm): 23.0°F
2018-11-14 17:53 18 3 -1 51 300° 14 26 30.34 30.35 10 CLR None
2018-11-14 16:53 19 2 0 46 290° 18 29 30.29 30.30 10 FEW060 Peak wind: 33 mph (29 kts) from 290° at 07 min
2018-11-14 15:53 20 0 1 40 300° 18 30 30.23 30.24 10 FEW055 Peak wind: 37 mph (33 kts) from 320° at 19 min
2018-11-14 14:53 21 -1 2 37 290° 16 32 30.20 30.21 10 SCT055 Peak wind: 35 mph (31 kts) from 300° at 58 min
2018-11-14 13:53 21 -1 2 37 300° 22 32 30.16 30.17 10 SCT050 Peak wind: 36 mph (32 kts) from 310° at 26 min
2018-11-14 12:53 23 1 5 37 300° 20 30 30.15 30.15 10 SCT050 Peak wind: 39 mph (34 kts) from 320° at 08 min
6-hr Min Temp (1pm): 19.0°F
6-hr Max Temp (1pm): 23.0°F
2018-11-14 11:53 22 1 3 39 290° 16 35 30.12 30.13 10 SCT050 Peak wind: 35 mph (31 kts) from 300° at 56 min
2018-11-14 10:53 21 1 2 40 300° 21 33 30.12 30.12 10 SCT050 Peak wind: 36 mph (32 kts) from 310° at 35 min
2018-11-14 09:53 21 2 4 42 280° 16 26 30.11 30.11 10 FEW048 Peak wind: 42 mph (37 kts) from 320° at 20 min
2018-11-14 08:53 19 1 -1 44 280° 20 33 30.07 30.08 10 FEW040 Peak wind: 34 mph (30 kts) from 310° at 30 min
2018-11-14 07:53 19 1 1 44 300° 16 26 30.05 30.06 10 FEW030 FEW150 Peak wind: 36 mph (32 kts) from 290° at 19 min
Pressure rising rapidly
2018-11-14 06:53 20 3 1 47 290° 13 30 29.98 29.99 10 FEW030 FEW160 Peak wind: 34 mph (30 kts) from 290° at 09 min
24-hr Precip Total (7am): 0.93"
6-hr Min Temp (7am): 19.9°F
6-hr Max Temp (7am): 33.1°F
2018-11-14 05:53 21 4 2 46 290° 21 33 29.95 29.96 10 FEW040 FEW150 Peak wind: 35 mph (31 kts) from 270° at 55 min
2018-11-14 04:53 22 5 5 47 280° 16 24 29.92 29.93 10 CLR None
2018-11-14 03:53 23 8 7 52 300° 16 25 29.89 29.90 10 CLR None
2018-11-14 02:53 25 12 9 57 290° 14 25 29.86 29.86 10 FEW140 Peak wind: 34 mph (30 kts) from 300° at 00 min
2018-11-14 01:53 29 18 13 63 310° 20 31 29.82 29.83 10 FEW035 SCT140 Peak wind: 36 mph (32 kts) from 310° at 13 min
2018-11-14 00:53 33 24 21 69 300° 10 21 29.75 29.76 10 FEW038 OVC140 6-hr Precip Total (1am): 0.01"
6-hr Min Temp (1am): 33.1°F
6-hr Max Temp (1am): 37.0°F
2018-11-13 23:53 35 27 21 72 300° 14 32 29.72 29.73 10 SCT038 OVC140 Peak wind: 36 mph (32 kts) from 280° at 37 min
24-hr Min Temp (12am): 30.0°F
24-hr Max Temp (12am): 41.0°F
2018-11-13 22:53 36 32 32 85 250° 5 - 29.70 29.70 10 FEW050 OVC120 None
2018-11-13 21:53 35 33 30 92 280° 6 - 29.69 29.69 10 FEW050 OVC120 6-hr Precip Total (10pm): 0.01"

Support USWX by starting your Amazon purchase here.